Startpagina
METAR-TAF:

METAR-TAF

Vliegvelden :

Bermuda, Bermuda

L.F. Wade International Airport

breedte: 32-22N, lengte: 064-41W, hoogte: 6 m

Actueel weer

Dit bericht is 27 minuten geleden gemaakt, om 15:55 UTC
Wind 14 kt uit het westen
Temperatuur 29°C
Vochtigheid 70%
Druk 1022 hPa
Zicht 10 km of meer
Weinig wolken op 1800 ft
Verspreide wolken op 18000 ft
Gebroken wolken op 30000 ft

METAR: TXKF 221555Z 28014KT 9999 FEW018 SCT180 BKN300 29/23 Q1022

Tijdstip: 13:22 (16:22 UTC)

Verwachting

Dit bericht is 4 uur en het 52 minuten geleden gemaakt, om 11:30 UTC
Verwachting geldig van 22 om 12 UTC tot 23 om 12 UTC
Wind 10 kt uit het westen
Zicht 10 km of meer
Weinig wolken op 2000 ft
Verspreide wolken op 18000 ft
Gebroken wolken op 30000 ft
Tijdelijke
van 23 om 06 UTC tot 23 om 12 UTC
Wind 10 kt uit het westen
Zicht: 4800 m
Gebroken wolken op 1400 ft
regenbuien

TAF: TXKF 221130Z 2212/2312 26010KT 9999 FEW020 SCT180 BKN300 TEMPO 2306/2312 26010KT 4800 SHRA BKN014

Waarnemingen en weersverwachtingen van meer dan 4000 vliegvelden (METAR en TAF).

De beschikbare stations zijn de gele en rode punten op de kaart.

Ga met uw muis naar het station om de naam te zien.

Klik dan om waarnemingen en weersverwachtingen te zien.

kaart wijzigen: klik op de groene knoppen met een zwart kruis om in te zoomen, op de groene knop met een streepje om uit te zoomen of op de groene pijlen voor aangrenzende kaarten.


METAR-TAF: